Time;durP1;ratioP1;P1;durP2;ratioP2;P2;SDS_P1;SDS_P2;PMS_P1;PMS_P2;Temp;Humidity;BMP_temperature;BMP_pressure;BME280_temperature;BME280_humidity;BME280_pressure;Samples;Min_cycle;Max_cycle;Signal;HPM_P1;HPM_P2
2022/08/12 00:44:21;;;;;;;4.28;3.03;;;21.90;64.70;;;;;;5049356;28;20434;-68
2022/08/12 00:46:51;;;;;;;4.13;2.33;;;21.90;64.90;;;;;;5050283;28;20036;-67
2022/08/12 00:49:19;;;;;;;7.22;3.47;;;21.80;65.10;;;;;;5049246;28;20522;-66
2022/08/12 00:52:05;;;;;;;5.88;2.55;;;21.80;65.10;;;;;;5051759;28;20045;-67
2022/08/12 00:54:53;;;;;;;4.60;2.80;;;21.80;65.30;;;;;;5051171;28;20634;-67
2022/08/12 00:57:42;;;;;;;4.60;2.35;;;21.80;65.30;;;;;;5051349;28;20036;-67
2022/08/12 01:00:11;;;;;;;4.60;2.90;;;21.80;65.60;;;;;;5048608;28;20538;-67
2022/08/12 01:02:39;;;;;;;6.93;2.95;;;21.70;65.70;;;;;;5050385;28;20107;-67
2022/08/12 01:13:27;;;;;;;6.50;2.60;;;21.60;65.90;;;;;;5049892;28;20028;-67
2022/08/12 01:15:55;;;;;;;6.03;3.80;;;21.60;66.00;;;;;;5050975;28;20507;-67
2022/08/12 01:18:24;;;;;;;5.47;2.30;;;21.60;66.80;;;;;;5048586;28;20112;-67
2022/08/12 01:20:58;;;;;;;3.83;2.60;;;21.60;66.30;;;;;;5051102;28;20615;-67
2022/08/12 01:23:47;;;;;;;4.25;2.70;;;21.50;66.30;;;;;;5049489;28;20433;-67
2022/08/12 01:26:23;;;;;;;8.68;3.63;;;21.50;66.30;;;;;;5051071;28;20477;-67
2022/08/12 01:28:53;;;;;;;3.97;2.60;;;21.50;66.50;;;;;;5053029;28;20028;-67
2022/08/12 01:31:21;;;;;;;4.05;2.75;;;21.40;66.50;;;;;;5053736;28;20492;-67
2022/08/12 01:33:58;;;;;;;7.38;2.80;;;21.40;66.60;;;;;;5055944;28;20085;-67
2022/08/12 01:36:27;;;;;;;4.95;2.80;;;21.40;66.80;;;;;;5058193;28;20511;-67
2022/08/12 01:38:56;;;;;;;4.78;2.85;;;21.40;66.90;;;;;;5054124;28;20072;-67
2022/08/12 01:41:24;;;;;;;5.97;2.60;;;21.40;66.90;;;;;;5056418;28;20396;-67
2022/08/12 01:43:53;;;;;;;4.70;2.80;;;21.40;67.00;;;;;;5056243;28;20450;-67
2022/08/12 01:47:11;;;;;;;3.60;2.35;;;21.40;67.20;;;;;;5057356;28;20415;-67
2022/08/12 01:49:59;;;;;;;5.15;2.40;;;21.30;67.10;;;;;;4994379;28;20541;-66
2022/08/12 01:52:32;;;;;;;3.95;2.63;;;21.30;67.10;;;;;;4994992;28;20551;-66
2022/08/12 01:54:59;;;;;;;4.60;2.40;;;21.30;67.30;;;;;;5034772;28;20059;-66
2022/08/12 01:57:43;;;;;;;6.38;3.17;;;21.30;67.30;;;;;;5057036;28;20029;-65
2022/08/12 02:00:12;;;;;;;4.68;2.65;;;21.20;67.50;;;;;;5055728;28;20381;-66
2022/08/12 02:02:50;;;;;;;3.50;2.38;;;21.20;67.60;;;;;;5056643;28;20048;-67
2022/08/12 02:11:18;;;;;;;4.72;2.65;;;21.10;68.00;;;;;;5054431;28;20063;-66
2022/08/12 02:14:01;;;;;;;5.65;2.67;;;21.10;68.00;;;;;;5056274;28;20035;-66
2022/08/12 02:16:57;;;;;;;8.60;3.45;;;21.10;67.90;;;;;;5053884;28;20140;-66
2022/08/12 02:19:57;;;;;;;2.83;2.03;;;21.00;68.00;;;;;;5053950;28;20087;-67
2022/08/12 02:22:37;;;;;;;7.63;3.25;;;21.00;68.00;;;;;;5056216;28;20025;-66
2022/08/12 02:25:10;;;;;;;4.80;2.60;;;21.00;68.00;;;;;;5056176;28;20024;-66
2022/08/12 02:27:39;;;;;;;4.97;3.10;;;20.90;68.00;;;;;;5057459;28;20041;-67
2022/08/12 02:30:08;;;;;;;6.05;2.75;;;20.90;68.10;;;;;;5053702;28;20044;-66
2022/08/12 02:32:38;;;;;;;6.53;2.78;;;20.90;68.20;;;;;;5057622;28;20033;-67
2022/08/12 02:35:09;;;;;;;6.00;2.92;;;20.90;68.40;;;;;;5053723;28;20021;-66
2022/08/12 02:37:39;;;;;;;7.07;3.15;;;20.90;68.20;;;;;;5056709;28;20033;-66
2022/08/12 02:40:06;;;;;;;4.72;3.00;;;20.90;68.30;;;;;;5050563;28;20056;-66
2022/08/12 02:42:33;;;;;;;8.02;2.97;;;20.80;68.20;;;;;;5054386;28;20677;-66
2022/08/12 02:45:08;;;;;;;4.63;2.80;;;20.80;68.50;;;;;;5052116;28;20028;-66
2022/08/12 02:47:39;;;;;;;5.47;2.63;;;20.80;68.50;;;;;;5053292;28;20354;-66
2022/08/12 02:50:06;;;;;;;6.47;2.85;;;20.80;68.60;;;;;;5050735;28;20029;-67
2022/08/12 02:52:33;;;;;;;4.22;2.60;;;20.70;68.60;;;;;;5053681;28;20473;-67
2022/08/12 02:55:17;;;;;;;4.97;2.97;;;20.70;68.70;;;;;;5051486;28;20033;-67
2022/08/12 02:57:45;;;;;;;6.30;3.40;;;20.70;68.60;;;;;;5053740;28;20472;-67
2022/08/12 03:00:14;;;;;;;5.32;2.78;;;20.70;68.60;;;;;;5052427;28;20041;-67
2022/08/12 03:02:43;;;;;;;4.50;2.55;;;20.70;68.80;;;;;;5053777;28;20033;-67
2022/08/12 03:05:11;;;;;;;4.93;3.30;;;20.70;68.90;;;;;;5052184;28;20037;-68
2022/08/12 03:07:52;;;;;;;4.85;3.00;;;20.70;68.80;;;;;;5053105;28;20550;-68
2022/08/12 03:10:23;;;;;;;4.32;2.65;;;20.60;68.80;;;;;;5051439;28;20035;-68
2022/08/12 03:12:53;;;;;;;6.22;3.38;;;20.60;68.90;;;;;;5052206;28;20029;-67
2022/08/12 03:15:21;;;;;;;6.20;2.50;;;20.60;68.90;;;;;;5052747;28;20476;-70
2022/08/12 03:18:05;;;;;;;5.38;3.30;;;20.60;69.20;;;;;;5052643;28;20033;-67
2022/08/12 03:20:36;;;;;;;;;;;20.50;69.00;;;;;;5045050;28;20021;-68
2022/08/12 03:23:04;;;;;;;5.20;2.90;;;20.50;68.30;;;;;;5051064;28;19917;-71
2022/08/12 03:25:36;;;;;;;5.85;3.20;;;20.50;68.90;;;;;;5053325;28;20035;-70
2022/08/12 03:28:03;;;;;;;5.35;2.65;;;20.50;69.00;;;;;;5051115;28;20025;-72
2022/08/12 03:30:31;;;;;;;5.47;3.30;;;20.50;69.20;;;;;;5053179;28;20044;-72
2022/08/12 03:32:58;;;;;;;4.72;3.15;;;20.50;69.20;;;;;;5051022;28;20052;-71
2022/08/12 03:35:27;;;;;;;4.80;2.55;;;20.40;69.20;;;;;;5053748;28;20017;-70
2022/08/12 03:38:04;;;;;;;7.25;3.13;;;20.40;69.20;;;;;;5043501;28;20104;-70
2022/08/12 04:00:23;;;;;;;3.38;2.58;;;20.40;69.30;;;;;;5049290;28;20492;-71
2022/08/12 04:03:00;;;;;;;4.68;3.22;;;20.30;69.30;;;;;;5038921;28;20124;-70
2022/08/12 04:05:30;;;;;;;4.60;2.90;;;20.30;69.30;;;;;;5051661;28;20037;-70
2022/08/12 04:07:58;;;;;;;3.75;2.83;;;20.30;69.60;;;;;;5050641;28;20045;-69
2022/08/12 04:13:14;;;;;;;5.15;2.80;;;20.30;69.70;;;;;;5050461;28;20036;-69
2022/08/12 04:13:20;;;;;;;7.32;3.63;;;20.30;70.00;;;;;;5049399;28;20033;-69
2022/08/12 04:15:48;;;;;;;4.95;3.10;;;20.30;69.90;;;;;;5050525;28;20056;-69
2022/08/12 04:18:15;;;;;;;5.05;3.35;;;20.30;70.10;;;;;;5050654;28;20029;-69
2022/08/12 04:20:45;;;;;;;6.30;3.33;;;20.30;70.10;;;;;;5052086;28;20078;-69
2022/08/12 04:23:13;;;;;;;8.05;3.28;;;20.30;70.10;;;;;;5032675;28;20061;-70
2022/08/12 04:25:39;;;;;;;6.57;3.28;;;20.30;70.30;;;;;;5050011;28;20056;-69
2022/08/12 04:28:07;;;;;;;8.50;3.22;;;20.30;70.50;;;;;;5043754;28;20544;-69
2022/08/12 04:30:32;;;;;;;4.78;2.97;;;20.30;70.30;;;;;;5050873;28;20075;-70
2022/08/12 04:32:58;;;;;;;4.00;2.97;;;20.30;70.70;;;;;;5051262;28;20025;-70
2022/08/12 04:35:24;;;;;;;7.57;3.65;;;20.40;70.90;;;;;;5051424;28;20028;-70
2022/08/12 04:37:54;;;;;;;8.60;3.63;;;20.40;70.90;;;;;;5050306;28;20365;-69
2022/08/12 04:40:23;;;;;;;6.30;3.67;;;20.40;70.90;;;;;;5051865;28;20357;-70
2022/08/12 04:42:50;;;;;;;8.80;3.70;;;20.40;70.70;;;;;;5054224;28;20550;-70
2022/08/12 04:45:19;;;;;;;7.63;3.53;;;20.40;70.70;;;;;;5051845;28;20033;-68
2022/08/12 04:47:45;;;;;;;4.55;3.20;;;20.40;70.80;;;;;;5049934;28;20523;-68
2022/08/12 04:50:15;;;;;;;9.15;3.50;;;20.40;70.50;;;;;;5050688;28;20388;-68
2022/08/12 04:52:40;;;;;;;7.72;3.63;;;20.40;70.60;;;;;;5051611;28;20376;-69
2022/08/12 04:55:09;;;;;;;6.43;3.90;;;20.40;70.30;;;;;;5050701;28;20040;-69
2022/08/12 04:57:35;;;;;;;5.30;3.20;;;20.40;70.80;;;;;;5049828;28;20070;-69
2022/08/12 05:00:00;;;;;;;5.57;3.30;;;20.40;70.60;;;;;;5050825;28;20423;-69
2022/08/12 05:02:26;;;;;;;5.75;3.13;;;20.50;70.50;;;;;;5043727;28;20025;-69
2022/08/12 05:04:55;;;;;;;5.55;3.20;;;20.50;70.50;;;;;;5050364;28;20109;-69
2022/08/12 05:07:22;;;;;;;6.18;3.03;;;20.50;70.40;;;;;;5050435;28;20041;-69
2022/08/12 05:09:48;;;;;;;7.97;3.05;;;20.50;70.20;;;;;;5050079;28;20392;-69
2022/08/12 05:12:17;;;;;;;7.63;3.13;;;20.50;70.20;;;;;;5045417;28;20024;-69
2022/08/12 05:14:42;;;;;;;9.63;3.40;;;20.60;69.80;;;;;;5038369;28;20068;-68
2022/08/12 05:17:08;;;;;;;10.27;3.22;;;20.60;69.70;;;;;;5045743;28;20476;-68
2022/08/12 05:19:34;;;;;;;6.55;3.30;;;20.60;69.90;;;;;;5048334;28;20037;-68
2022/08/12 05:21:59;;;;;;;5.05;3.25;;;20.60;70.00;;;;;;5050282;28;20025;-68
2022/08/12 05:24:25;;;;;;;7.18;3.55;;;20.70;69.80;;;;;;5048632;28;20040;-68
2022/08/12 05:26:51;;;;;;;5.32;3.53;;;20.70;69.70;;;;;;5049209;28;20029;-68
2022/08/12 05:29:16;;;;;;;5.82;3.20;;;20.70;69.60;;;;;;5047658;28;20036;-68
2022/08/12 05:31:42;;;;;;;5.32;3.38;;;20.70;70.20;;;;;;5048439;28;20048;-68
2022/08/12 05:34:12;;;;;;;4.43;2.90;;;20.80;70.10;;;;;;5049943;28;20032;-68
2022/08/12 05:36:38;;;;;;;5.45;3.03;;;20.80;69.70;;;;;;5049783;28;20040;-68
2022/08/12 05:39:04;;;;;;;7.28;3.38;;;20.80;69.60;;;;;;5049756;28;20037;-68
2022/08/12 05:41:33;;;;;;;6.45;3.20;;;20.90;69.50;;;;;;5050085;28;20071;-67
2022/08/12 05:44:02;;;;;;;6.00;2.90;;;20.90;69.60;;;;;;5050048;28;20033;-68
2022/08/12 05:46:29;;;;;;;9.93;4.30;;;20.90;69.30;;;;;;5050127;28;20021;-67
2022/08/12 05:48:55;;;;;;;5.95;3.08;;;21.00;69.00;;;;;;5049078;28;20044;-68
2022/08/12 05:51:26;;;;;;;5.63;3.10;;;21.00;68.90;;;;;;5050018;28;20017;-68
2022/08/12 05:53:52;;;;;;;6.60;2.90;;;21.10;68.80;;;;;;5048412;28;20480;-68
2022/08/12 05:56:19;;;;;;;6.25;3.20;;;21.10;68.90;;;;;;5050252;28;20119;-67
2022/08/12 05:58:46;;;;;;;5.18;2.90;;;21.20;68.70;;;;;;5048539;28;20029;-68
2022/08/12 06:01:12;;;;;;;6.50;2.95;;;21.30;68.80;;;;;;5048600;28;20037;-66
2022/08/12 06:03:37;;;;;;;7.10;3.30;;;21.30;68.90;;;;;;5047790;28;20053;-67
2022/08/12 06:06:05;;;;;;;5.88;3.42;;;21.30;68.90;;;;;;5049365;28;20098;-68
2022/08/12 06:08:34;;;;;;;4.95;3.10;;;21.40;68.90;;;;;;5034099;28;20040;-68
2022/08/12 06:11:01;;;;;;;7.57;3.85;;;21.40;69.10;;;;;;5047987;28;20574;-67
2022/08/12 06:13:28;;;;;;;6.40;3.10;;;21.50;68.90;;;;;;5036214;28;20048;-68
2022/08/12 06:15:53;;;;;;;6.32;3.50;;;21.60;69.00;;;;;;5053590;28;20468;-68
2022/08/12 06:18:19;;;;;;;6.35;2.90;;;21.60;68.80;;;;;;5053837;28;20025;-67
2022/08/12 06:20:57;;;;;;;10.25;3.55;;;21.60;68.60;;;;;;5053861;28;20392;-68
2022/08/12 06:23:27;;;;;;;7.30;3.53;;;21.70;68.40;;;;;;5052116;28;20114;-67
2022/08/12 06:25:54;;;;;;;5.85;3.05;;;21.80;69.30;;;;;;5053883;28;20095;-69
2022/08/12 06:28:21;;;;;;;4.32;2.95;;;21.90;68.50;;;;;;5048241;28;20049;-68
2022/08/12 06:30:47;;;;;;;3.70;2.70;;;21.90;68.10;;;;;;5045096;28;20048;-68
2022/08/12 06:33:13;;;;;;;4.50;2.55;;;21.90;68.10;;;;;;5051992;28;20129;-68
2022/08/12 06:35:43;;;;;;;9.15;2.95;;;22.00;68.20;;;;;;5052051;28;20670;-68
2022/08/12 06:38:14;;;;;;;7.13;2.75;;;22.00;67.30;;;;;;5041635;28;20037;-68
2022/08/12 06:43:26;;;;;;;9.63;3.25;;;22.10;67.10;;;;;;5043958;28;20033;-68
2022/08/12 06:45:52;;;;;;;7.22;2.47;;;22.30;67.10;;;;;;5051788;28;20394;-68
2022/08/12 06:48:18;;;;;;;4.15;2.47;;;22.30;66.90;;;;;;5049321;28;20039;-68
2022/08/12 06:50:44;;;;;;;7.28;3.10;;;22.40;66.90;;;;;;5051179;28;20203;-68
2022/08/12 06:53:11;;;;;;;3.67;2.20;;;22.50;67.00;;;;;;5051418;28;20030;-67
2022/08/12 06:55:38;;;;;;;13.07;2.83;;;22.50;66.60;;;;;;5045015;28;20138;-67
2022/08/12 06:58:04;;;;;;;4.47;2.28;;;22.60;65.80;;;;;;5038481;28;20029;-68
2022/08/12 07:00:32;;;;;;;5.22;2.33;;;22.70;65.70;;;;;;5053516;28;20536;-68
2022/08/12 07:02:59;;;;;;;6.22;2.22;;;22.80;65.50;;;;;;5043376;28;20037;-68
2022/08/12 07:05:26;;;;;;;6.07;2.88;;;22.90;65.20;;;;;;5051675;28;20037;-68
2022/08/12 07:07:57;;;;;;;5.95;2.90;;;23.00;65.10;;;;;;5049958;28;20029;-68
2022/08/12 07:10:24;;;;;;;6.25;2.58;;;23.10;65.40;;;;;;5050261;28;20501;-67
2022/08/12 07:12:53;;;;;;;7.32;2.53;;;23.10;65.30;;;;;;5037740;28;20083;-68
2022/08/12 07:15:23;;;;;;;7.97;2.50;;;23.20;64.90;;;;;;5047413;28;20031;-67
2022/08/12 07:17:50;;;;;;;8.43;3.00;;;23.30;65.00;;;;;;5045550;28;20054;-69
2022/08/12 07:20:16;;;;;;;7.40;3.30;;;23.30;64.50;;;;;;5047445;28;20086;-69
2022/08/12 07:22:42;;;;;;;5.45;2.75;;;23.50;64.40;;;;;;5047673;28;20045;-68
2022/08/12 07:27:53;;;;;;;17.90;3.35;;;23.60;64.00;;;;;;5048985;28;20025;-69
2022/08/12 07:30:20;;;;;;;5.55;2.75;;;23.60;64.00;;;;;;5037976;28;20032;-69
2022/08/12 07:32:48;;;;;;;8.07;2.58;;;23.70;64.00;;;;;;5054425;28;20029;-69
2022/08/12 07:35:16;;;;;;;6.40;2.75;;;23.80;63.90;;;;;;5044175;28;20056;-69
2022/08/12 07:37:43;;;;;;;4.68;2.00;;;23.90;63.40;;;;;;5040171;28;20048;-69
2022/08/12 07:40:10;;;;;;;3.22;2.05;;;24.00;63.40;;;;;;5058772;28;20027;-69
2022/08/12 07:42:37;;;;;;;8.63;2.40;;;24.00;62.80;;;;;;5057624;28;20037;-69
2022/08/12 07:45:03;;;;;;;5.47;1.95;;;24.10;62.30;;;;;;5057375;28;20065;-69
2022/08/12 07:47:29;;;;;;;4.03;1.98;;;24.20;62.20;;;;;;5058528;28;20171;-69
2022/08/12 07:49:57;;;;;;;5.57;2.63;;;24.20;61.90;;;;;;5057949;28;20060;-69
2022/08/12 07:52:24;;;;;;;5.10;2.30;;;24.30;62.00;;;;;;5051895;28;20167;-69
2022/08/12 07:54:49;;;;;;;7.43;2.20;;;24.40;62.20;;;;;;5051971;28;20029;-68
2022/08/12 07:57:15;;;;;;;6.63;2.67;;;24.50;61.30;;;;;;5049235;28;20041;-69
2022/08/12 07:59:40;;;;;;;7.20;2.30;;;24.60;61.10;;;;;;5048578;28;20033;-69
2022/08/12 08:02:08;;;;;;;4.82;2.10;;;24.60;61.10;;;;;;5051627;28;20025;-69
2022/08/12 08:07:19;;;;;;;3.42;1.95;;;24.80;60.90;;;;;;5051526;28;20045;-69
2022/08/12 08:09:45;;;;;;;5.50;1.90;;;24.90;60.50;;;;;;5047137;28;20071;-69
2022/08/12 08:14:57;;;;;;;;;;;25.00;59.60;;;;;;5050097;28;20029;-68
2022/08/12 08:17:24;;;;;;;2.40;1.58;;;25.10;59.70;;;;;;5051815;28;19908;-69
2022/08/12 08:19:54;;;;;;;3.25;1.60;;;25.10;58.70;;;;;;5049865;28;20535;-69
2022/08/12 08:22:23;;;;;;;3.60;1.48;;;25.20;58.00;;;;;;5049710;28;20089;-69
2022/08/12 08:24:56;;;;;;;2.85;1.20;;;25.30;57.90;;;;;;5037240;28;20029;-69
2022/08/12 08:27:23;;;;;;;1.75;1.20;;;25.40;57.60;;;;;;5051230;28;20025;-68
2022/08/12 08:29:49;;;;;;;3.78;1.33;;;25.50;57.10;;;;;;5049635;28;20035;-70
2022/08/12 08:32:14;;;;;;;2.13;1.40;;;25.50;56.60;;;;;;5051722;28;20025;-69
2022/08/12 08:34:40;;;;;;;3.33;1.77;;;25.60;56.60;;;;;;5049384;28;20029;-67
2022/08/12 08:37:06;;;;;;;2.25;1.20;;;25.70;56.80;;;;;;5050531;28;20036;-68
2022/08/12 08:39:33;;;;;;;1.92;1.33;;;25.70;55.80;;;;;;5049259;28;20035;-68
2022/08/12 08:44:44;;;;;;;2.38;1.15;;;25.90;55.30;;;;;;5047684;28;20041;-68
2022/08/12 08:47:11;;;;;;;3.22;1.40;;;25.90;55.80;;;;;;5032735;28;20017;-68
2022/08/12 08:49:38;;;;;;;2.45;1.33;;;26.00;55.30;;;;;;5049766;28;20056;-68
2022/08/12 08:52:05;;;;;;;2.38;1.60;;;26.10;54.90;;;;;;5043885;28;20167;-69
2022/08/12 08:54:33;;;;;;;2.45;1.20;;;26.10;54.60;;;;;;5045073;28;20021;-68
2022/08/12 08:57:00;;;;;;;3.28;1.95;;;26.20;54.80;;;;;;5047138;28;20032;-68
2022/08/12 08:59:27;;;;;;;3.33;1.40;;;26.30;54.60;;;;;;5043721;28;20028;-68
2022/08/12 09:01:52;;;;;;;2.28;1.42;;;26.30;54.00;;;;;;5049813;28;20105;-67
2022/08/12 09:04:19;;;;;;;3.63;1.85;;;26.40;54.20;;;;;;5049802;28;20482;-67
2022/08/12 09:06:48;;;;;;;2.70;1.55;;;26.40;54.50;;;;;;5031525;28;20047;-68
2022/08/12 09:09:16;;;;;;;2.97;1.40;;;26.50;54.30;;;;;;5048761;28;20075;-69
2022/08/12 09:14:26;;;;;;;;;;;26.60;53.80;;;;;;5047822;28;20072;-69
2022/08/12 09:16:52;;;;;;;6.35;1.75;;;26.60;54.60;;;;;;5048020;28;19948;-71
2022/08/12 09:19:18;;;;;;;4.63;1.80;;;26.70;53.60;;;;;;5048251;28;20072;-69
2022/08/12 09:21:47;;;;;;;4.30;1.60;;;26.70;53.80;;;;;;5050735;28;20047;-69
2022/08/12 09:24:17;;;;;;;3.55;1.65;;;26.80;53.20;;;;;;5047529;28;20032;-70
2022/08/12 09:26:47;;;;;;;3.47;1.50;;;26.90;53.50;;;;;;5051483;28;20368;-70
2022/08/12 09:29:14;;;;;;;3.90;1.90;;;26.90;53.20;;;;;;5049900;28;20090;-70
2022/08/12 09:31:40;;;;;;;4.25;1.85;;;27.00;52.60;;;;;;5051159;28;20024;-70
2022/08/12 09:34:12;;;;;;;3.08;1.70;;;26.90;52.40;;;;;;5050026;28;20040;-70
2022/08/12 09:36:39;;;;;;;3.55;1.45;;;27.00;52.20;;;;;;5043897;28;20029;-70
2022/08/12 09:39:06;;;;;;;4.55;1.60;;;27.10;51.80;;;;;;5041655;28;20040;-70
2022/08/12 09:41:43;;;;;;;2.10;1.40;;;27.10;52.00;;;;;;5051596;28;20468;-70
2022/08/12 09:46:53;;;;;;;;;;;27.30;52.30;;;;;;5051994;28;20433;-70
2022/08/12 09:49:20;;;;;;;5.35;1.50;;;27.40;53.00;;;;;;5051281;28;19952;-70
2022/08/12 09:51:47;;;;;;;3.00;1.50;;;27.40;51.80;;;;;;5038173;28;20029;-70
2022/08/12 09:54:15;;;;;;;4.72;1.50;;;27.40;51.00;;;;;;5046666;28;20380;-70
2022/08/12 09:56:43;;;;;;;4.70;1.20;;;27.40;50.80;;;;;;5055232;28;20025;-70
2022/08/12 09:59:09;;;;;;;2.67;1.63;;;27.50;50.00;;;;;;5054489;28;20036;-70
2022/08/12 10:01:39;;;;;;;5.93;1.65;;;27.50;49.60;;;;;;5055292;28;20048;-70
2022/08/12 10:04:09;;;;;;;3.95;1.75;;;27.50;49.20;;;;;;5054000;28;20056;-70
2022/08/12 10:06:40;;;;;;;2.83;1.33;;;27.50;49.20;;;;;;5054126;28;20496;-69
2022/08/12 10:09:08;;;;;;;7.80;2.30;;;27.60;49.10;;;;;;5054255;28;20048;-70
2022/08/12 10:14:19;;;;;;;3.83;1.75;;;27.60;49.00;;;;;;5054182;28;20100;-70
2022/08/12 10:16:44;;;;;;;3.50;1.80;;;27.70;49.20;;;;;;5037106;28;20021;-69
2022/08/12 10:19:11;;;;;;;3.35;2.13;;;27.80;49.30;;;;;;5053244;28;20399;-70
2022/08/12 10:21:40;;;;;;;3.42;2.00;;;27.90;49.70;;;;;;5052907;28;20032;-70
2022/08/12 10:24:13;;;;;;;3.70;1.70;;;27.90;49.50;;;;;;5054345;28;20492;-70
2022/08/12 10:29:41;;;;;;;4.60;1.50;;;28.00;48.80;;;;;;5053950;28;20041;-70
2022/08/12 10:32:14;;;;;;;2.05;1.60;;;28.00;48.60;;;;;;5054490;28;20040;-70
2022/08/12 10:34:40;;;;;;;;;;;28.20;49.10;;;;;;5054558;28;20134;-70
2022/08/12 10:37:06;;;;;;;3.08;1.42;;;28.20;49.20;;;;;;5054447;28;19967;-70
2022/08/12 10:39:36;;;;;;;3.50;1.60;;;28.10;47.90;;;;;;5053147;28;20432;-70
2022/08/12 10:44:59;;;;;;;2.78;1.75;;;28.10;48.10;;;;;;5053649;28;20040;-69
2022/08/12 10:47:29;;;;;;;4.47;1.50;;;28.10;47.40;;;;;;5053627;28;20112;-69
2022/08/12 10:49:55;;;;;;;2.55;1.40;;;28.10;47.60;;;;;;5053407;28;20064;-69
2022/08/12 10:52:24;;;;;;;2.75;1.90;;;28.20;47.70;;;;;;5054262;28;20028;-69
2022/08/12 10:54:51;;;;;;;3.55;1.58;;;28.20;47.70;;;;;;5053525;28;20086;-70
2022/08/12 10:57:17;;;;;;;4.45;1.63;;;28.30;47.40;;;;;;5053806;28;20033;-69
2022/08/12 10:59:44;;;;;;;3.42;1.40;;;28.30;47.30;;;;;;5052495;28;20032;-70
2022/08/12 11:02:12;;;;;;;6.68;1.80;;;28.30;46.80;;;;;;5053056;28;20473;-70
2022/08/12 11:04:39;;;;;;;2.17;1.67;;;28.30;47.40;;;;;;5050474;28;20119;-70
2022/08/12 11:07:06;;;;;;;3.88;1.58;;;28.30;47.10;;;;;;5054026;28;20114;-69
2022/08/12 11:09:33;;;;;;;3.72;1.50;;;28.30;47.40;;;;;;5051762;28;20029;-70
2022/08/12 11:12:05;;;;;;;3.83;1.80;;;28.30;47.50;;;;;;5052897;28;20056;-70
2022/08/12 11:14:32;;;;;;;2.63;1.67;;;28.30;47.90;;;;;;5052864;28;20025;-70
2022/08/12 11:17:00;;;;;;;4.05;1.70;;;28.30;48.20;;;;;;5053889;28;20058;-70
2022/08/12 11:19:27;;;;;;;6.15;2.00;;;28.40;47.90;;;;;;5053326;28;20060;-69
2022/08/12 11:21:54;;;;;;;3.88;1.60;;;28.40;47.40;;;;;;5052763;28;20017;-69
2022/08/12 11:24:23;;;;;;;3.80;2.08;;;28.40;47.40;;;;;;5049836;28;20118;-69
2022/08/12 11:26:49;;;;;;;4.68;1.70;;;28.50;46.80;;;;;;5053212;28;20376;-70
2022/08/12 11:29:16;;;;;;;5.90;2.05;;;28.40;47.10;;;;;;5051655;28;20032;-69
2022/08/12 11:31:42;;;;;;;2.92;1.77;;;28.40;47.20;;;;;;5053164;28;20060;-70
2022/08/12 11:34:07;;;;;;;2.85;1.60;;;28.40;47.10;;;;;;5052472;28;20376;-70
2022/08/12 11:36:33;;;;;;;3.88;1.80;;;28.50;47.50;;;;;;5053377;28;20029;-70
2022/08/12 11:38:59;;;;;;;4.22;1.80;;;28.50;47.60;;;;;;5049246;28;20101;-68
2022/08/12 11:41:24;;;;;;;2.72;1.60;;;28.60;47.80;;;;;;5052836;28;20032;-69
2022/08/12 11:43:50;;;;;;;4.47;1.70;;;28.50;47.30;;;;;;5043325;28;20083;-70
2022/08/12 11:46:17;;;;;;;3.75;2.00;;;28.50;47.40;;;;;;5035546;28;20629;-70
2022/08/12 11:48:43;;;;;;;2.10;1.50;;;28.50;48.00;;;;;;5053903;28;20037;-70
2022/08/12 11:51:09;;;;;;;2.97;1.70;;;28.60;47.30;;;;;;5064253;28;20024;-70
2022/08/12 11:53:36;;;;;;;6.43;1.70;;;28.70;47.50;;;;;;5065008;28;20024;-70
2022/08/12 11:56:04;;;;;;;3.15;1.50;;;28.70;47.70;;;;;;5053259;28;20025;-69
2022/08/12 11:58:31;;;;;;;6.95;2.08;;;28.60;47.40;;;;;;5051336;28;20021;-70
2022/08/12 12:00:56;;;;;;;3.67;1.67;;;28.60;47.60;;;;;;5052778;28;20064;-69
2022/08/12 12:03:22;;;;;;;3.47;1.40;;;28.70;47.50;;;;;;5052009;28;20033;-70
2022/08/12 12:05:47;;;;;;;4.90;1.60;;;28.70;47.10;;;;;;5052452;28;20174;-70
2022/08/12 12:08:24;;;;;;;2.20;1.63;;;28.80;47.00;;;;;;5049585;28;20033;-70
2022/08/12 12:10:50;;;;;;;2.15;1.42;;;28.80;47.00;;;;;;5052904;28;20057;-69
2022/08/12 12:13:20;;;;;;;2.47;1.45;;;28.90;47.10;;;;;;5050987;28;20376;-69
2022/08/12 12:15:47;;;;;;;3.75;1.45;;;28.90;46.70;;;;;;5052632;28;20017;-69
2022/08/12 12:18:27;;;;;;;4.30;1.85;;;29.00;46.80;;;;;;5051575;28;20907;-70
2022/08/12 12:20:55;;;;;;;6.65;2.15;;;29.00;46.80;;;;;;5051521;28;20441;-69
2022/08/12 12:23:21;;;;;;;2.97;1.60;;;29.10;46.30;;;;;;5051462;28;20431;-69
2022/08/12 12:25:47;;;;;;;2.95;1.63;;;29.10;45.90;;;;;;5051512;28;20085;-69
2022/08/12 12:28:13;;;;;;;2.95;1.40;;;29.20;45.90;;;;;;5051321;28;20057;-69
2022/08/12 12:30:39;;;;;;;2.45;1.30;;;29.10;45.70;;;;;;5052564;28;20404;-69
2022/08/12 12:33:06;;;;;;;3.35;1.48;;;29.10;45.90;;;;;;5050767;28;20354;-69
2022/08/12 12:35:33;;;;;;;4.03;1.58;;;29.10;45.90;;;;;;5052621;28;20036;-69
2022/08/12 12:38:07;;;;;;;4.00;1.48;;;29.10;46.70;;;;;;5051571;28;20419;-68
2022/08/12 12:40:34;;;;;;;6.72;1.83;;;29.20;46.00;;;;;;5052398;28;20025;-69
2022/08/12 12:43:00;;;;;;;2.45;1.25;;;29.30;45.90;;;;;;5050172;28;20404;-69
2022/08/12 12:45:28;;;;;;;4.65;1.80;;;29.30;46.30;;;;;;5052400;28;20108;-69
2022/08/12 12:47:57;;;;;;;6.65;1.38;;;29.50;47.00;;;;;;5050790;28;20083;-69
2022/08/12 12:50:25;;;;;;;2.75;1.83;;;29.60;46.40;;;;;;5041793;28;20721;-69
2022/08/12 12:52:51;;;;;;;10.55;1.60;;;29.60;46.00;;;;;;5070413;28;20033;-69
2022/08/12 12:55:17;;;;;;;3.40;1.40;;;29.70;45.70;;;;;;5052243;28;20025;-70
2022/08/12 12:57:44;;;;;;;2.90;1.13;;;29.80;45.60;;;;;;5052110;28;20491;-70
2022/08/12 13:00:14;;;;;;;6.60;1.65;;;29.80;45.50;;;;;;5050677;28;20211;-70
2022/08/12 13:02:51;;;;;;;7.35;1.95;;;29.70;45.20;;;;;;5051417;28;20037;-70
2022/08/12 13:05:28;;;;;;;5.88;1.63;;;29.60;45.20;;;;;;5051495;28;20049;-70
2022/08/12 13:08:02;;;;;;;3.65;1.88;;;29.50;45.30;;;;;;5050969;28;20484;-70
2022/08/12 13:10:29;;;;;;;;;;;29.40;45.40;;;;;;5037620;28;20029;-70
2022/08/12 13:12:55;;;;;;;3.72;1.88;;;29.30;45.50;;;;;;5049966;28;20363;-70
2022/08/12 13:15:20;;;;;;;4.18;1.50;;;29.30;45.40;;;;;;5052119;28;20032;-70
2022/08/12 13:17:55;;;;;;;3.38;1.60;;;29.20;45.60;;;;;;5050344;28;20498;-70
2022/08/12 13:20:22;;;;;;;4.47;1.77;;;29.20;45.50;;;;;;5051555;28;20021;-70
2022/08/12 13:22:48;;;;;;;2.67;1.40;;;29.20;45.70;;;;;;5050942;28;20043;-69
2022/08/12 13:25:15;;;;;;;2.22;1.48;;;29.40;45.90;;;;;;5050484;28;20033;-69
2022/08/12 13:27:44;;;;;;;2.53;1.80;;;29.50;46.00;;;;;;5037429;28;20028;-68
2022/08/12 13:30:22;;;;;;;3.03;1.98;;;29.50;45.80;;;;;;5049980;28;20082;-69
2022/08/12 13:32:56;;;;;;;2.22;1.50;;;29.50;45.90;;;;;;5050865;28;20024;-70
2022/08/12 13:35:21;;;;;;;10.65;1.77;;;29.60;46.00;;;;;;5051989;28;20094;-70
2022/08/12 13:37:53;;;;;;;3.47;1.77;;;29.70;45.80;;;;;;5050834;28;20067;-70
2022/08/12 13:40:39;;;;;;;3.45;1.60;;;29.70;45.90;;;;;;5050770;28;20032;-70
2022/08/12 13:43:05;;;;;;;3.05;1.45;;;29.70;46.10;;;;;;5050206;28;20187;-70
2022/08/12 13:45:32;;;;;;;3.55;1.80;;;29.60;46.00;;;;;;5051494;28;20476;-70
2022/08/12 13:48:01;;;;;;;3.08;1.60;;;29.60;45.90;;;;;;5049886;28;20040;-69
2022/08/12 13:50:31;;;;;;;4.65;1.60;;;29.50;46.10;;;;;;5051312;28;20048;-69
2022/08/12 13:53:01;;;;;;;4.63;2.15;;;29.50;46.10;;;;;;5050669;28;20098;-69
2022/08/12 13:55:27;;;;;;;4.57;1.70;;;29.40;46.10;;;;;;5051502;28;20478;-70
2022/08/12 13:57:54;;;;;;;3.75;1.67;;;29.40;46.40;;;;;;5050339;28;20061;-70
2022/08/12 14:00:21;;;;;;;3.03;1.55;;;29.30;46.00;;;;;;5051191;28;20025;-70
2022/08/12 14:02:47;;;;;;;2.90;1.77;;;29.30;46.80;;;;;;5050502;28;20037;-70
2022/08/12 14:05:13;;;;;;;3.47;1.50;;;29.30;46.40;;;;;;5050925;28;20037;-71
2022/08/12 14:07:52;;;;;;;3.95;1.90;;;29.30;46.50;;;;;;5048784;28;20124;-70
2022/08/12 14:10:54;;;;;;;4.20;1.73;;;29.40;46.30;;;;;;5046898;28;20411;-70
2022/08/12 14:13:25;;;;;;;3.08;1.58;;;29.50;46.50;;;;;;5031150;28;20037;-70
2022/08/12 14:15:53;;;;;;;5.22;1.55;;;29.50;46.10;;;;;;5051320;28;20039;-70
2022/08/12 14:18:24;;;;;;;2.35;1.40;;;29.50;46.30;;;;;;5049459;28;20096;-70
2022/08/12 14:21:00;;;;;;;3.05;2.00;;;29.60;46.00;;;;;;5049864;28;20357;-70
2022/08/12 14:23:28;;;;;;;3.30;1.60;;;29.80;46.30;;;;;;5045567;28;20033;-70
2022/08/12 14:25:57;;;;;;;4.90;1.58;;;30.00;46.20;;;;;;5044917;28;20380;-71
2022/08/12 14:28:23;;;;;;;7.68;1.98;;;30.10;46.20;;;;;;5047708;28;20029;-70
2022/08/12 14:30:52;;;;;;;6.55;1.80;;;30.30;45.70;;;;;;5046482;28;20040;-70
2022/08/12 14:33:39;;;;;;;4.95;2.00;;;30.30;45.20;;;;;;5046272;28;20041;-70
2022/08/12 14:36:08;;;;;;;3.22;1.80;;;30.40;45.80;;;;;;5042031;28;20029;-70
2022/08/12 14:38:39;;;;;;;2.28;1.48;;;30.40;45.30;;;;;;5054278;28;20115;-70
2022/08/12 14:41:10;;;;;;;2.42;1.60;;;30.50;46.30;;;;;;5045599;28;20408;-70
2022/08/12 14:43:37;;;;;;;2.92;1.55;;;30.70;46.00;;;;;;5050126;28;20560;-69